createdAt,value
2022-12-11T00:01:46.570Z,98961.22
2022-12-11T00:04:13.558Z,98951.97
2022-12-11T00:06:40.453Z,98956.66
2022-12-11T00:09:07.338Z,98948.63
2022-12-11T00:11:34.205Z,98941.34
2022-12-11T00:14:01.212Z,98957.09
2022-12-11T00:16:28.130Z,98960.53
2022-12-11T00:18:55.570Z,98972.75
2022-12-11T00:21:22.499Z,98971.50
2022-12-11T00:23:49.462Z,98954.16
2022-12-11T00:26:17.001Z,98937.34
2022-12-11T00:28:45.606Z,98979.63
2022-12-11T00:31:20.297Z,98981.22
2022-12-11T00:33:48.269Z,98947.78
2022-12-11T00:36:23.933Z,98954.84
2022-12-11T00:38:51.519Z,98943.94
2022-12-11T00:41:19.092Z,98939.81
2022-12-11T00:43:46.696Z,98963.88
2022-12-11T00:46:14.388Z,98972.59
2022-12-11T00:48:41.413Z,98937.75
2022-12-11T00:51:08.458Z,98965.38
2022-12-11T00:53:35.425Z,98958.78
2022-12-11T00:56:02.298Z,98959.16
2022-12-11T00:58:29.263Z,98981.56
2022-12-11T01:01:16.067Z,98959.84
2022-12-11T01:03:43.500Z,98960.34
2022-12-11T01:06:15.666Z,98963.06
2022-12-11T01:08:43.905Z,98959.22
2022-12-11T01:11:13.265Z,98950.06
2022-12-11T01:13:42.089Z,98956.06
2022-12-11T01:16:14.652Z,98961.38
2022-12-11T01:18:42.678Z,98965.00
2022-12-11T01:21:13.030Z,98956.16
2022-12-11T01:23:40.837Z,98950.56
2022-12-11T01:26:13.172Z,98982.03
2022-12-11T01:28:41.147Z,98970.00
2022-12-11T01:31:12.771Z,98963.97
2022-12-11T01:33:40.428Z,98959.88
2022-12-11T01:36:13.702Z,98992.72
2022-12-11T01:38:41.675Z,98982.50
2022-12-11T01:41:10.389Z,98976.44
2022-12-11T01:44:16.135Z,98970.75
2022-12-11T01:46:43.665Z,98965.66
2022-12-11T01:49:13.967Z,98961.28
2022-12-11T01:51:57.012Z,98973.16
2022-12-11T01:54:25.830Z,98975.78
2022-12-11T01:56:55.430Z,98985.34
2022-12-11T01:59:26.393Z,98969.25
2022-12-11T02:02:21.734Z,98989.78
2022-12-11T02:04:48.818Z,98979.22
2022-12-11T02:07:15.754Z,98999.72
2022-12-11T02:09:45.262Z,98986.31
2022-12-11T02:12:41.211Z,99007.56
2022-12-11T02:15:14.008Z,99002.81
2022-12-11T02:17:43.759Z,99000.50
2022-12-11T02:20:38.078Z,99007.47
2022-12-11T02:23:41.510Z,98985.75
2022-12-11T02:26:36.264Z,99004.41
2022-12-11T02:29:07.348Z,98994.72
2022-12-11T02:31:39.904Z,99023.19
2022-12-11T02:34:26.861Z,98988.03
2022-12-11T02:36:59.302Z,98977.09
2022-12-11T02:39:28.590Z,98987.00
2022-12-11T02:41:56.830Z,98994.38
2022-12-11T02:44:28.249Z,98969.91
2022-12-11T02:46:55.957Z,98987.09
2022-12-11T02:49:24.558Z,98979.03
2022-12-11T02:51:53.420Z,98988.44
2022-12-11T02:54:27.478Z,98997.50
2022-12-11T02:57:06.453Z,99003.84
2022-12-11T02:59:39.844Z,99002.25
2022-12-11T03:02:07.707Z,98969.84
2022-12-11T03:04:36.563Z,99025.06
2022-12-11T03:07:08.075Z,99012.56
2022-12-11T03:09:35.040Z,99027.34
2022-12-11T03:12:02.020Z,98963.38
2022-12-11T03:14:29.017Z,98989.53
2022-12-11T03:17:05.181Z,98999.31
2022-12-11T03:19:39.983Z,99004.50
2022-12-11T03:22:16.485Z,99010.97
2022-12-11T03:24:49.673Z,99018.34
2022-12-11T03:27:24.565Z,98994.72
2022-12-11T03:30:00.014Z,98990.94
2022-12-11T03:32:34.819Z,99020.00
2022-12-11T03:35:13.724Z,98993.22
2022-12-11T03:37:42.325Z,99004.78
2022-12-11T03:40:16.966Z,99009.16
2022-12-11T03:42:47.340Z,99028.03
2022-12-11T03:45:16.567Z,99005.19
2022-12-11T03:47:45.906Z,99000.84
2022-12-11T03:50:16.485Z,99013.00
2022-12-11T03:52:46.519Z,98991.03
2022-12-11T03:55:16.632Z,99027.34
2022-12-11T03:57:43.894Z,99028.75
2022-12-11T04:00:15.293Z,99028.25
2022-12-11T04:02:43.020Z,99016.44
2022-12-11T04:05:10.729Z,99010.56
2022-12-11T04:07:38.056Z,99018.09
2022-12-11T04:10:07.102Z,99023.13
2022-12-11T04:12:34.061Z,99027.84
2022-12-11T04:15:00.921Z,99018.53
2022-12-11T04:17:32.899Z,99030.00
2022-12-11T04:19:59.867Z,99019.94
2022-12-11T04:22:26.732Z,99035.63
2022-12-11T04:24:53.976Z,99080.41
2022-12-11T04:27:20.898Z,99033.78
2022-12-11T04:29:47.827Z,99051.47
2022-12-11T04:32:14.716Z,99055.16
2022-12-11T04:34:41.682Z,99049.88
2022-12-11T04:37:08.570Z,99055.75
2022-12-11T04:39:35.527Z,99059.75
2022-12-11T04:42:02.346Z,99052.47
2022-12-11T04:44:29.284Z,99069.84
2022-12-11T04:46:56.184Z,99054.56
2022-12-11T04:49:23.088Z,99074.69
2022-12-11T04:51:49.907Z,99065.22
2022-12-11T04:54:16.972Z,99058.25
2022-12-11T04:56:43.952Z,99073.34
2022-12-11T04:59:10.853Z,99047.59
2022-12-11T05:01:37.800Z,99076.78
2022-12-11T05:04:04.959Z,99092.56
2022-12-11T05:06:31.808Z,99052.22
2022-12-11T05:08:58.757Z,99060.97
2022-12-11T05:11:25.637Z,99069.94
2022-12-11T05:13:52.684Z,99067.41
2022-12-11T05:16:19.673Z,99073.78
2022-12-11T05:18:46.845Z,99071.94
2022-12-11T05:21:15.205Z,99055.41
2022-12-11T05:23:42.430Z,99088.19
2022-12-11T05:26:14.528Z,99090.28
2022-12-11T05:28:42.024Z,99098.84
2022-12-11T05:31:13.671Z,99086.94
2022-12-11T05:33:40.850Z,99101.94
2022-12-11T05:36:09.076Z,99095.09
2022-12-11T05:38:35.977Z,99102.47
2022-12-11T05:41:06.041Z,99080.41
2022-12-11T05:43:36.010Z,99098.84
2022-12-11T05:46:10.263Z,99112.63
2022-12-11T05:48:38.463Z,99131.13
2022-12-11T05:51:06.975Z,99116.38
2022-12-11T05:53:35.762Z,99129.22
2022-12-11T05:56:05.045Z,99113.28
2022-12-11T05:58:32.661Z,99100.78
2022-12-11T06:00:59.868Z,99124.44
2022-12-11T06:03:27.063Z,99101.78
2022-12-11T06:05:53.981Z,99133.41
2022-12-11T06:08:20.989Z,99111.44
2022-12-11T06:10:49.880Z,99129.13
2022-12-11T06:13:17.413Z,99121.16
2022-12-11T06:15:44.384Z,99118.81
2022-12-11T06:18:11.461Z,99122.00
2022-12-11T06:20:38.716Z,99123.34
2022-12-11T06:23:05.930Z,99137.69
2022-12-11T06:25:32.938Z,99128.38
2022-12-11T06:28:00.109Z,99145.06
2022-12-11T06:30:39.025Z,99127.38
2022-12-11T06:33:09.426Z,99138.72
2022-12-11T06:35:41.645Z,99133.91
2022-12-11T06:38:09.836Z,99144.91
2022-12-11T06:40:36.711Z,99151.47
2022-12-11T06:43:03.784Z,99150.72
2022-12-11T06:45:30.759Z,99151.53
2022-12-11T06:47:58.745Z,99135.00
2022-12-11T06:50:25.975Z,99140.72
2022-12-11T06:52:52.963Z,99131.16
2022-12-11T06:55:19.896Z,99156.72
2022-12-11T06:57:46.856Z,99157.91
2022-12-11T07:00:14.587Z,99145.56
2022-12-11T07:02:41.666Z,99142.31
2022-12-11T07:05:09.376Z,99134.69
2022-12-11T07:07:39.651Z,99144.31
2022-12-11T07:10:08.585Z,99155.06
2022-12-11T07:12:36.365Z,99160.16
2022-12-11T07:15:05.070Z,99147.41
2022-12-11T07:17:32.005Z,99138.63
2022-12-11T07:19:58.896Z,99154.03
2022-12-11T07:22:25.852Z,99154.88
2022-12-11T07:24:52.711Z,99162.03
2022-12-11T07:27:19.662Z,99160.94
2022-12-11T07:29:46.664Z,99172.22
2022-12-11T07:32:15.072Z,99170.81
2022-12-11T07:34:44.125Z,99150.56
2022-12-11T07:37:14.455Z,99158.97
2022-12-11T07:39:42.245Z,99156.03
2022-12-11T07:42:09.343Z,99144.44
2022-12-11T07:44:36.228Z,99155.06
2022-12-11T07:47:04.046Z,99145.94
2022-12-11T07:49:31.451Z,99142.59
2022-12-11T07:51:58.706Z,99152.25
2022-12-11T07:54:26.026Z,99159.88
2022-12-11T07:56:53.875Z,99150.75
2022-12-11T07:59:21.156Z,99162.41
2022-12-11T08:01:48.262Z,99171.22
2022-12-11T08:04:15.230Z,99180.69
2022-12-11T08:06:44.239Z,99150.06
2022-12-11T08:09:20.364Z,99178.94
2022-12-11T08:11:50.511Z,99171.00
2022-12-11T08:14:19.081Z,99165.97
2022-12-11T08:16:46.067Z,99187.50
2022-12-11T08:19:14.067Z,99165.00
2022-12-11T08:21:41.465Z,99182.22
2022-12-11T08:24:09.374Z,99185.25
2022-12-11T08:26:36.706Z,99172.53
2022-12-11T08:29:04.379Z,99199.19
2022-12-11T08:31:32.986Z,99179.50
2022-12-11T08:33:59.957Z,99176.91
2022-12-11T08:36:27.231Z,99177.44
2022-12-11T08:38:55.816Z,99188.66
2022-12-11T08:41:26.288Z,99183.44
2022-12-11T08:43:54.094Z,99207.66
2022-12-11T08:46:23.640Z,99176.75
2022-12-11T08:48:51.017Z,99179.34
2022-12-11T08:51:20.605Z,99182.81
2022-12-11T08:53:47.576Z,99162.22
2022-12-11T08:56:17.349Z,99195.81
2022-12-11T08:58:46.815Z,99220.84
2022-12-11T09:01:16.701Z,99191.72
2022-12-11T09:03:43.965Z,99203.63
2022-12-11T09:06:14.607Z,99205.16
2022-12-11T09:08:47.208Z,99193.47
2022-12-11T09:11:27.621Z,99186.75
2022-12-11T09:13:54.892Z,99197.31
2022-12-11T09:16:24.740Z,99215.16
2022-12-11T09:18:53.870Z,99191.44
2022-12-11T09:21:23.785Z,99208.41
2022-12-11T09:23:57.752Z,99196.31
2022-12-11T09:26:25.878Z,99209.91
2022-12-11T09:28:52.851Z,99206.03
2022-12-11T09:31:29.051Z,99202.94
2022-12-11T09:33:58.457Z,99161.28
2022-12-11T09:36:26.093Z,99210.00
2022-12-11T09:38:53.546Z,99189.09
2022-12-11T09:41:23.445Z,99178.81
2022-12-11T09:44:20.939Z,99191.66
2022-12-11T09:46:50.848Z,99211.13
2022-12-11T09:49:28.892Z,99200.88
2022-12-11T09:52:31.069Z,99211.59
2022-12-11T09:55:02.441Z,99193.09
2022-12-11T09:57:33.895Z,99179.91
2022-12-11T10:00:11.510Z,99203.88
2022-12-11T10:02:54.154Z,99214.06
2022-12-11T10:05:57.376Z,99216.63
2022-12-11T10:08:48.581Z,99201.97
2022-12-11T10:11:28.448Z,99222.59
2022-12-11T10:14:22.488Z,99218.38
2022-12-11T10:16:54.722Z,99224.84
2022-12-11T10:19:32.668Z,99210.72
2022-12-11T10:22:01.623Z,99213.84
2022-12-11T10:27:33.410Z,99198.97
2022-12-11T10:30:08.228Z,99218.19
2022-12-11T10:32:47.405Z,99195.81
2022-12-11T10:35:38.640Z,99217.59
2022-12-11T10:38:20.353Z,99202.63
2022-12-11T10:40:55.445Z,99207.72
2022-12-11T10:43:37.056Z,99212.28
2022-12-11T10:46:05.953Z,99187.19
2022-12-11T10:48:33.204Z,99216.00
2022-12-11T10:51:06.745Z,99177.75
2022-12-11T10:53:34.452Z,99200.16
2022-12-11T10:56:02.383Z,99189.13
2022-12-11T10:58:32.533Z,99199.41
2022-12-11T11:01:28.699Z,99213.94
2022-12-11T11:04:02.631Z,99197.34
2022-12-11T11:06:29.630Z,99204.84
2022-12-11T11:08:58.952Z,99198.16
2022-12-11T11:11:37.549Z,99247.13
2022-12-11T11:14:05.543Z,99212.88
2022-12-11T11:16:37.252Z,99226.63
2022-12-11T11:19:04.657Z,99215.63
2022-12-11T11:21:32.812Z,99215.78
2022-12-11T11:24:00.235Z,99208.25
2022-12-11T11:26:43.516Z,99223.34
2022-12-11T11:29:28.760Z,99236.53
2022-12-11T11:31:55.784Z,99221.50
2022-12-11T11:34:22.765Z,99227.56
2022-12-11T11:36:58.807Z,99252.16
2022-12-11T11:39:25.776Z,99232.94
2022-12-11T11:42:15.126Z,99209.28
2022-12-11T11:44:59.421Z,99229.91
2022-12-11T11:47:31.791Z,99225.88
2022-12-11T11:50:07.869Z,99232.69
2022-12-11T11:52:40.692Z,99227.38
2022-12-11T11:55:35.260Z,99243.94
2022-12-11T11:58:20.264Z,99220.09
2022-12-11T12:00:47.744Z,99234.28
2022-12-11T12:03:21.724Z,99228.25
2022-12-11T12:06:04.596Z,99228.16
2022-12-11T12:09:13.429Z,99244.19
2022-12-11T12:11:57.054Z,99236.28
2022-12-11T12:14:53.952Z,99247.13
2022-12-11T12:17:30.603Z,99250.25
2022-12-11T12:20:17.369Z,99236.03
2022-12-11T12:22:56.407Z,99264.16
2022-12-11T12:25:29.382Z,99266.09
2022-12-11T12:28:28.493Z,99251.06
2022-12-11T12:31:02.777Z,99270.53
2022-12-11T12:33:48.077Z,99234.69
2022-12-11T12:36:27.380Z,99266.53
2022-12-11T12:39:01.565Z,99277.44
2022-12-11T12:41:48.463Z,99252.66
2022-12-11T12:44:19.182Z,99256.28
2022-12-11T12:46:51.585Z,99257.84
2022-12-11T12:49:43.327Z,99256.00
2022-12-11T12:52:30.952Z,99257.66
2022-12-11T12:55:01.650Z,99253.81
2022-12-11T12:57:28.583Z,99263.56
2022-12-11T12:59:55.494Z,99267.66
2022-12-11T13:02:22.874Z,99266.97
2022-12-11T13:04:58.737Z,99251.31
2022-12-11T13:07:29.200Z,99239.44
2022-12-11T13:10:04.502Z,99261.94
2022-12-11T13:12:45.426Z,99244.88
2022-12-11T13:15:42.258Z,99267.31
2022-12-11T13:18:38.492Z,99233.34
2022-12-11T13:21:35.023Z,99259.75
2022-12-11T13:24:14.153Z,99262.72
2022-12-11T13:26:42.285Z,99265.78
2022-12-11T13:29:31.018Z,99255.31
2022-12-11T13:32:01.221Z,99260.91
2022-12-11T13:34:33.143Z,99258.84
2022-12-11T13:37:02.285Z,99249.09
2022-12-11T13:39:39.270Z,99242.28
2022-12-11T13:42:18.351Z,99227.81
2022-12-11T13:44:49.075Z,99251.31
2022-12-11T13:47:18.918Z,99231.44
2022-12-11T13:49:50.147Z,99246.88
2022-12-11T13:52:20.492Z,99249.59
2022-12-11T13:54:50.581Z,99254.03
2022-12-11T13:57:23.945Z,99249.00
2022-12-11T13:59:54.157Z,99221.28
2022-12-11T14:02:36.717Z,99245.22
2022-12-11T14:05:08.140Z,99236.47
2022-12-11T14:07:56.877Z,99250.75
2022-12-11T14:10:27.268Z,99220.47
2022-12-11T14:12:54.058Z,99229.91
2022-12-11T14:15:21.906Z,99250.75
2022-12-11T14:17:51.929Z,99235.16
2022-12-11T14:20:26.187Z,99239.09
2022-12-11T14:23:22.003Z,99230.13
2022-12-11T14:25:57.556Z,99226.69
2022-12-11T14:28:26.848Z,99225.34
2022-12-11T14:30:58.861Z,99237.94
2022-12-11T14:33:35.371Z,99244.09
2022-12-11T14:36:05.104Z,99222.38
2022-12-11T14:39:21.543Z,99240.78
2022-12-11T14:42:04.111Z,99219.88
2022-12-11T14:44:45.026Z,99258.47
2022-12-11T14:47:27.388Z,99254.16
2022-12-11T14:50:05.073Z,99270.50
2022-12-11T14:52:44.449Z,99249.59
2022-12-11T14:55:33.969Z,99237.25
2022-12-11T14:58:13.622Z,99254.03
2022-12-11T15:00:41.101Z,99254.41
2022-12-11T15:03:17.325Z,99264.97
2022-12-11T15:05:53.116Z,99260.34
2022-12-11T15:08:25.937Z,99245.50
2022-12-11T15:11:11.292Z,99254.41
2022-12-11T15:14:06.550Z,99269.16
2022-12-11T15:16:38.426Z,99252.72
2022-12-11T15:19:05.638Z,99250.59
2022-12-11T15:21:35.583Z,99228.69
2022-12-11T15:24:05.728Z,99249.19
2022-12-11T15:26:47.947Z,99242.47
2022-12-11T15:29:35.187Z,99242.50
2022-12-11T15:32:09.627Z,99237.25
2022-12-11T15:34:45.548Z,99238.63
2022-12-11T15:37:23.173Z,99227.63
2022-12-11T15:39:51.330Z,99220.16
2022-12-11T15:42:41.350Z,99213.19
2022-12-11T15:45:28.850Z,99236.44
2022-12-11T15:47:56.409Z,99246.34
2022-12-11T15:50:30.132Z,99242.47
2022-12-11T15:52:58.359Z,99237.84
2022-12-11T15:55:28.802Z,99251.97
2022-12-11T15:58:03.394Z,99250.00
2022-12-11T16:00:30.424Z,99235.66
2022-12-11T16:02:58.172Z,99225.44
2022-12-11T16:05:34.121Z,99243.16
2022-12-11T16:08:01.501Z,99241.16
2022-12-11T16:10:28.946Z,99227.53
2022-12-11T16:12:56.001Z,99242.75
2022-12-11T16:15:24.198Z,99238.09
2022-12-11T16:18:03.653Z,99234.38
2022-12-11T16:20:31.663Z,99217.22
2022-12-11T16:22:59.304Z,99227.03
2022-12-11T16:25:27.890Z,99226.06
2022-12-11T16:28:02.208Z,99212.78
2022-12-11T16:30:29.761Z,99224.94
2022-12-11T16:32:59.152Z,99257.75
2022-12-11T16:35:26.520Z,99244.91
2022-12-11T16:37:54.567Z,99227.03
2022-12-11T16:40:22.605Z,99231.34
2022-12-11T16:42:50.143Z,99239.25
2022-12-11T16:45:21.821Z,99197.94
2022-12-11T16:47:52.678Z,99221.69
2022-12-11T16:50:19.797Z,99213.38
2022-12-11T16:52:46.974Z,99220.69
2022-12-11T16:55:15.016Z,99226.78
2022-12-11T16:57:42.761Z,99228.00
2022-12-11T17:00:11.375Z,99216.16
2022-12-11T17:02:38.422Z,99222.09
2022-12-11T17:05:05.771Z,99222.94
2022-12-11T17:07:33.525Z,99216.56
2022-12-11T17:10:00.804Z,99223.94
2022-12-11T17:12:31.724Z,99208.09
2022-12-11T17:14:58.776Z,99208.09
2022-12-11T17:17:25.717Z,99213.38
2022-12-11T17:19:52.708Z,99199.38
2022-12-11T17:22:19.970Z,99193.22
2022-12-11T17:24:47.698Z,99193.66
2022-12-11T17:27:14.693Z,99179.13
2022-12-11T17:29:41.970Z,99196.50
2022-12-11T17:32:09.233Z,99196.94
2022-12-11T17:34:38.559Z,99179.66
2022-12-11T17:37:06.330Z,99214.38
2022-12-11T17:39:33.750Z,99188.38
2022-12-11T17:42:00.960Z,99195.66
2022-12-11T17:44:29.013Z,99163.72
2022-12-11T17:46:57.486Z,99201.47
2022-12-11T17:49:25.669Z,99203.53
2022-12-11T17:51:53.137Z,99185.69
2022-12-11T17:54:20.345Z,99198.13
2022-12-11T17:56:47.624Z,99214.63
2022-12-11T17:59:14.673Z,99187.72
2022-12-11T18:01:41.591Z,99179.72
2022-12-11T18:04:09.117Z,99193.31
2022-12-11T18:06:43.595Z,99218.94
2022-12-11T18:09:13.902Z,99199.38
2022-12-11T18:11:41.185Z,99214.03
2022-12-11T18:14:12.342Z,99217.56
2022-12-11T18:16:42.415Z,99191.72
2022-12-11T18:19:09.598Z,99203.63
2022-12-11T18:21:40.657Z,99209.44
2022-12-11T18:24:08.149Z,99194.63
2022-12-11T18:26:36.336Z,99199.78
2022-12-11T18:29:04.609Z,99211.94
2022-12-11T18:31:31.633Z,99202.13
2022-12-11T18:33:58.776Z,99212.63
2022-12-11T18:36:25.813Z,99215.22
2022-12-11T18:38:52.966Z,99195.84
2022-12-11T18:41:20.563Z,99199.03
2022-12-11T18:43:47.881Z,99235.53
2022-12-11T18:46:19.147Z,99186.44
2022-12-11T18:48:48.983Z,99213.69
2022-12-11T18:51:19.057Z,99205.84
2022-12-11T18:53:46.504Z,99201.47
2022-12-11T18:56:16.078Z,99176.03
2022-12-11T18:58:43.375Z,99206.16
2022-12-11T19:01:19.477Z,99214.72
2022-12-11T19:03:47.519Z,99189.03
2022-12-11T19:06:21.472Z,99206.50
2022-12-11T19:08:48.804Z,99185.44
2022-12-11T19:11:21.465Z,99168.97
2022-12-11T19:13:48.735Z,99185.59
2022-12-11T19:16:24.185Z,99201.19
2022-12-11T19:18:51.777Z,99190.81
2022-12-11T19:21:19.362Z,99196.50
2022-12-11T19:23:47.782Z,99187.38
2022-12-11T19:26:21.652Z,99194.75
2022-12-11T19:28:50.860Z,99193.06
2022-12-11T19:31:23.453Z,99189.13
2022-12-11T19:33:50.574Z,99181.56
2022-12-11T19:36:20.963Z,99157.16
2022-12-11T19:38:48.583Z,99179.13
2022-12-11T19:41:26.760Z,99181.31
2022-12-11T19:43:56.394Z,99170.00
2022-12-11T19:46:24.303Z,99173.69
2022-12-11T19:48:53.257Z,99154.22
2022-12-11T19:51:35.150Z,99159.06
2022-12-11T19:54:03.111Z,99145.13
2022-12-11T19:56:30.882Z,99160.84
2022-12-11T19:58:58.962Z,99144.38
2022-12-11T20:01:29.220Z,99182.91
2022-12-11T20:03:58.990Z,99142.66
2022-12-11T20:06:29.248Z,99144.69
2022-12-11T20:08:56.578Z,99178.13
2022-12-11T20:11:24.163Z,99156.81
2022-12-11T20:13:51.661Z,99168.66
2022-12-11T20:16:33.325Z,99166.72
2022-12-11T20:19:07.608Z,99165.44
2022-12-11T20:21:34.558Z,99164.09
2022-12-11T20:24:01.568Z,99182.91
2022-12-11T20:26:28.528Z,99183.06
2022-12-11T20:28:55.838Z,99166.38
2022-12-11T20:31:25.642Z,99165.22
2022-12-11T20:33:56.367Z,99191.72
2022-12-11T20:36:25.405Z,99175.44
2022-12-11T20:38:52.707Z,99162.28
2022-12-11T20:41:22.444Z,99202.19
2022-12-11T20:43:49.685Z,99186.34
2022-12-11T20:46:18.125Z,99188.72
2022-12-11T20:48:46.532Z,99202.97
2022-12-11T20:51:19.675Z,99157.06
2022-12-11T20:53:49.709Z,99187.28
2022-12-11T20:56:18.725Z,99194.00
2022-12-11T20:58:46.522Z,99180.22
2022-12-11T21:01:22.313Z,99171.84
2022-12-11T21:03:50.154Z,99170.41
2022-12-11T21:06:34.272Z,99177.13
2022-12-11T21:09:07.553Z,99189.63
2022-12-11T21:11:35.683Z,99210.44
2022-12-11T21:14:02.822Z,99202.28
2022-12-11T21:16:29.829Z,99213.78
2022-12-11T21:18:57.910Z,99199.09
2022-12-11T21:21:25.777Z,99216.69
2022-12-11T21:23:52.701Z,99221.25
2022-12-11T21:26:20.045Z,99220.72
2022-12-11T21:28:47.240Z,99216.63
2022-12-11T21:31:17.738Z,99227.78
2022-12-11T21:33:45.069Z,99221.91
2022-12-11T21:36:14.210Z,99215.63
2022-12-11T21:38:42.878Z,99197.00
2022-12-11T21:41:13.214Z,99196.59
2022-12-11T21:44:00.478Z,99193.22
2022-12-11T21:46:29.268Z,99204.88
2022-12-11T21:48:56.271Z,99177.03
2022-12-11T21:51:29.666Z,99206.06
2022-12-11T21:53:59.945Z,99183.84
2022-12-11T21:56:28.364Z,99188.94
2022-12-11T21:58:55.843Z,99188.63
2022-12-11T22:01:29.460Z,99196.00
2022-12-11T22:03:57.089Z,99192.22
2022-12-11T22:06:24.441Z,99192.78
2022-12-11T22:08:51.435Z,99187.59
2022-12-11T22:11:24.607Z,99191.47
2022-12-11T22:13:51.939Z,99190.97
2022-12-11T22:16:19.967Z,99177.13
2022-12-11T22:18:47.071Z,99184.28
2022-12-11T22:21:14.834Z,99158.66
2022-12-11T22:23:43.072Z,99161.59
2022-12-11T22:26:16.191Z,99192.38
2022-12-11T22:28:43.204Z,99192.81
2022-12-11T22:31:11.930Z,99199.88
2022-12-11T22:33:39.350Z,99158.06
2022-12-11T22:36:06.751Z,99176.63
2022-12-11T22:38:34.999Z,99171.16
2022-12-11T22:41:02.468Z,99181.72
2022-12-11T22:43:29.377Z,99174.34
2022-12-11T22:45:56.280Z,99145.81
2022-12-11T22:48:23.314Z,99171.50
2022-12-11T22:50:50.183Z,99149.94
2022-12-11T22:53:17.104Z,99169.53
2022-12-11T22:55:43.957Z,99139.69
2022-12-11T22:58:10.875Z,99156.03
2022-12-11T23:00:37.752Z,99146.59
2022-12-11T23:03:04.853Z,99177.28
2022-12-11T23:05:31.801Z,99126.34
2022-12-11T23:07:58.880Z,99156.78
2022-12-11T23:10:26.099Z,99173.00
2022-12-11T23:12:53.031Z,99148.03
2022-12-11T23:15:19.873Z,99148.94
2022-12-11T23:17:46.977Z,99146.97
2022-12-11T23:20:13.836Z,99152.59
2022-12-11T23:22:40.693Z,99152.91
2022-12-11T23:25:07.964Z,99125.22
2022-12-11T23:27:34.921Z,99163.69
2022-12-11T23:30:01.857Z,99151.44
2022-12-11T23:32:28.854Z,99168.63
2022-12-11T23:34:55.779Z,99156.63
2022-12-11T23:37:22.671Z,99133.72
2022-12-11T23:39:49.588Z,99165.56
2022-12-11T23:42:16.880Z,99150.97
2022-12-11T23:44:43.724Z,99135.59
2022-12-11T23:47:10.723Z,99162.41
2022-12-11T23:49:37.500Z,99146.38
2022-12-11T23:52:04.697Z,99148.72
2022-12-11T23:54:31.909Z,99147.50
2022-12-11T23:56:58.816Z,99155.78
2022-12-11T23:59:25.663Z,99161.00
